Time;durP1;ratioP1;P1;durP2;ratioP2;P2;SDS_P1;SDS_P2;PMS_P1;PMS_P2;Temp;Humidity;BMP_temperature;BMP_pressure;BME280_temperature;BME280_humidity;BME280_pressure;Samples;Min_cycle;Max_cycle;Signal;HPM_P1;HPM_P2
2023/07/08 00:01:20;;;;;;;3.75;2.00;;;;;;;20.50;51.88;101522.03;5067835;28;20040;-83
2023/07/08 00:03:48;;;;;;;4.22;1.60;;;;;;;20.47;51.51;101529.28;5062787;28;20540;-80
2023/07/08 00:06:26;;;;;;;4.43;1.88;;;;;;;20.47;51.91;101518.56;5054569;28;20045;-81
2023/07/08 00:08:53;;;;;;;4.68;1.80;;;;;;;20.45;51.83;101514.28;5067483;28;20490;-80
2023/07/08 00:11:20;;;;;;;4.13;1.80;;;;;;;20.42;52.03;101503.75;5069374;28;20063;-81
2023/07/08 00:13:48;;;;;;;4.47;1.85;;;;;;;20.37;52.07;101509.38;5068648;28;20444;-83
2023/07/08 00:16:18;;;;;;;3.58;1.80;;;;;;;20.33;52.01;101506.03;5066229;28;20049;-82
2023/07/08 00:18:48;;;;;;;2.83;1.67;;;;;;;20.33;52.16;101510.50;5063999;28;20513;-81
2023/07/08 00:21:17;;;;;;;2.90;1.95;;;;;;;20.30;52.37;101500.84;5058893;28;20084;-81
2023/07/08 00:23:50;;;;;;;3.40;2.00;;;;;;;20.32;52.36;101498.06;5066472;28;20072;-81
2023/07/08 00:26:27;;;;;;;3.38;1.67;;;;;;;20.30;52.42;101498.19;5067816;28;20044;-80
2023/07/08 00:28:56;;;;;;;2.95;1.92;;;;;;;20.28;52.22;101494.72;5066689;28;22299;-80
2023/07/08 00:31:25;;;;;;;4.60;1.65;;;;;;;20.26;52.30;101496.63;5055888;28;20879;-80
2023/07/08 00:33:55;;;;;;;3.17;1.63;;;;;;;20.27;52.36;101490.34;5065290;28;20042;-80
2023/07/08 00:36:27;;;;;;;2.10;1.80;;;;;;;20.29;52.37;101493.78;5065293;28;20041;-77
2023/07/08 00:38:55;;;;;;;2.05;1.70;;;;;;;20.26;52.45;101491.28;5053792;28;20049;-77
2023/07/08 00:41:34;;;;;;;2.72;1.70;;;;;;;20.25;52.48;101496.75;5065304;28;20037;-77
2023/07/08 00:44:02;;;;;;;2.95;1.50;;;;;;;20.20;52.66;101497.03;5056445;28;20048;-77
2023/07/08 00:46:29;;;;;;;4.60;1.90;;;;;;;20.16;52.71;101484.75;5067120;28;20041;-78
2023/07/08 00:49:14;;;;;;;3.40;1.83;;;;;;;20.11;52.77;101486.88;5066612;28;20091;-77
2023/07/08 00:51:42;;;;;;;3.72;1.75;;;;;;;20.07;52.84;101488.00;5063941;28;20072;-76
2023/07/08 00:54:12;;;;;;;4.63;1.83;;;;;;;20.05;53.08;101492.56;5066030;28;20090;-75
2023/07/08 00:56:58;;;;;;;3.47;1.77;;;;;;;20.00;53.12;101488.38;5064120;28;20453;-75
2023/07/08 00:59:56;;;;;;;3.40;1.70;;;;;;;19.97;53.23;101488.56;5065676;28;20044;-75
2023/07/08 01:02:27;;;;;;;3.58;1.80;;;;;;;19.91;53.30;101504.09;5065924;28;20053;-75
2023/07/08 01:05:04;;;;;;;5.15;1.83;;;;;;;19.86;53.46;101496.34;5066903;28;20906;-76
2023/07/08 01:07:33;;;;;;;4.07;1.80;;;;;;;19.84;53.46;101506.28;5066481;28;20048;-78
2023/07/08 01:10:12;;;;;;;4.95;1.90;;;;;;;19.81;53.62;101499.28;5067146;28;20139;-82
2023/07/08 01:12:53;;;;;;;4.60;1.75;;;;;;;19.76;53.95;101496.03;5066125;28;20119;-82
2023/07/08 01:15:31;;;;;;;4.72;1.98;;;;;;;19.76;53.94;101497.81;5084055;28;20095;-80
2023/07/08 01:17:59;;;;;;;5.15;2.08;;;;;;;19.74;53.95;101491.72;5067288;28;20068;-79
2023/07/08 01:20:27;;;;;;;7.35;1.98;;;;;;;19.69;54.16;101490.16;5066212;28;20095;-82
2023/07/08 01:22:55;;;;;;;3.03;1.90;;;;;;;19.64;54.23;101496.75;5066181;28;20045;-81
2023/07/08 01:25:22;;;;;;;3.35;2.00;;;;;;;19.63;54.37;101501.25;5064662;28;20044;-81
2023/07/08 01:27:55;;;;;;;3.97;1.92;;;;;;;19.63;54.79;101498.56;5065948;28;20045;-81
2023/07/08 01:30:23;;;;;;;3.65;1.92;;;;;;;19.60;54.68;101485.38;5066235;28;20037;-82
2023/07/08 01:33:01;;;;;;;5.07;2.00;;;;;;;19.62;54.80;101488.81;5058194;28;20080;-80
2023/07/08 01:35:28;;;;;;;3.35;1.90;;;;;;;19.63;54.76;101485.19;5065193;28;20768;-82
2023/07/08 01:38:04;;;;;;;4.05;1.73;;;;;;;19.64;54.89;101486.03;5066100;28;20041;-78
2023/07/08 01:40:37;;;;;;;4.97;2.13;;;;;;;19.57;55.07;101477.50;5076255;28;20045;-74
2023/07/08 01:43:13;;;;;;;4.28;1.83;;;;;;;19.50;55.19;101477.00;5068561;28;20045;-75
2023/07/08 01:45:42;;;;;;;3.15;1.80;;;;;;;19.47;55.61;101471.84;5066050;28;20041;-75
2023/07/08 01:48:17;;;;;;;2.35;1.75;;;;;;;19.46;55.54;101471.91;5069793;28;20047;-75
2023/07/08 01:51:05;;;;;;;3.47;1.85;;;;;;;19.43;55.52;101466.78;5047894;28;21038;-75
2023/07/08 01:53:42;;;;;;;4.40;1.73;;;;;;;19.44;55.52;101464.00;5056802;28;20042;-74
2023/07/08 01:56:13;;;;;;;2.85;1.90;;;;;;;19.44;55.60;101465.78;5050841;28;20044;-74
2023/07/08 01:58:41;;;;;;;2.38;1.88;;;;;;;19.41;55.50;101453.47;5063169;28;20049;-75
2023/07/08 02:01:09;;;;;;;2.38;1.92;;;;;;;19.44;55.49;101452.44;5064278;28;20067;-75
2023/07/08 02:03:36;;;;;;;2.58;1.88;;;;;;;19.42;55.59;101454.34;5071686;28;20110;-73
2023/07/08 02:06:04;;;;;;;4.30;1.90;;;;;;;19.35;55.55;101453.84;5069336;28;20120;-74
2023/07/08 02:08:31;;;;;;;3.65;2.10;;;;;;;19.26;56.23;101449.88;5069692;28;20037;-75
2023/07/08 02:10:59;;;;;;;4.85;2.30;;;;;;;19.15;56.16;101450.50;5065595;28;20184;-74
2023/07/08 02:13:26;;;;;;;5.63;1.83;;;;;;;19.01;56.89;101443.28;5065093;28;20048;-77
2023/07/08 02:15:54;;;;;;;4.78;1.90;;;;;;;18.93;57.37;101450.84;5065490;28;20136;-76
2023/07/08 02:18:24;;;;;;;2.92;2.00;;;;;;;18.82;57.88;101447.91;5062743;28;20041;-74
2023/07/08 02:20:52;;;;;;;3.05;1.88;;;;;;;18.74;57.67;101448.31;5060470;28;20045;-79
2023/07/08 02:23:19;;;;;;;4.50;2.20;;;;;;;18.69;58.11;101459.25;5072723;28;20546;-78
2023/07/08 02:25:54;;;;;;;4.82;2.03;;;;;;;18.68;58.38;101451.28;5063566;28;20080;-79
2023/07/08 02:28:23;;;;;;;3.13;2.05;;;;;;;18.63;58.48;101446.22;5061081;28;20868;-82
2023/07/08 02:30:50;;;;;;;3.53;2.00;;;;;;;18.61;58.57;101437.44;5065960;28;20492;-81
2023/07/08 02:33:19;;;;;;;4.22;2.33;;;;;;;18.62;58.90;101433.81;5064565;28;20544;-82
2023/07/08 02:35:46;;;;;;;3.25;2.30;;;;;;;18.62;58.54;101434.69;5065960;28;20037;-81
2023/07/08 02:38:13;;;;;;;3.85;2.47;;;;;;;18.67;58.52;101439.78;5063587;28;20052;-79
2023/07/08 02:40:41;;;;;;;3.03;2.00;;;;;;;18.72;58.39;101436.84;5056652;28;20100;-80
2023/07/08 02:43:08;;;;;;;2.35;1.90;;;;;;;18.65;58.37;101433.66;5065040;28;20072;-81
2023/07/08 02:45:36;;;;;;;3.58;2.40;;;;;;;18.61;58.74;101430.28;5064672;28;20055;-82
2023/07/08 02:48:03;;;;;;;4.22;2.22;;;;;;;18.54;58.95;101420.91;5063439;28;20053;-81
2023/07/08 02:50:31;;;;;;;3.03;2.00;;;;;;;18.51;58.97;101429.06;5063699;28;20771;-80
2023/07/08 02:52:59;;;;;;;3.08;2.20;;;;;;;18.44;59.16;101425.88;5062123;28;20128;-81
2023/07/08 02:55:26;;;;;;;4.53;2.40;;;;;;;18.47;58.70;101431.03;5064486;28;20045;-81
2023/07/08 02:57:53;;;;;;;2.75;2.30;;;;;;;18.43;59.35;101429.47;5064818;28;20045;-82
2023/07/08 03:00:20;;;;;;;4.10;2.10;;;;;;;18.33;59.57;101430.06;5064141;28;20037;-80
2023/07/08 03:02:47;;;;;;;4.93;2.20;;;;;;;18.23;59.85;101446.56;5064226;28;20112;-80
2023/07/08 03:05:14;;;;;;;5.75;2.15;;;;;;;18.13;60.32;101438.19;5064400;28;20060;-81
2023/07/08 03:07:41;;;;;;;3.08;2.25;;;;;;;18.07;60.37;101434.97;5064638;28;20461;-81
2023/07/08 03:10:09;;;;;;;3.45;2.08;;;;;;;18.00;60.80;101442.47;5065237;28;21004;-79
2023/07/08 03:12:36;;;;;;;3.08;2.40;;;;;;;17.95;60.96;101441.78;5065931;28;20041;-81
2023/07/08 03:15:05;;;;;;;3.42;2.20;;;;;;;17.92;61.37;101431.25;5065204;28;20622;-78
2023/07/08 03:17:32;;;;;;;4.22;2.10;;;;;;;17.93;61.23;101441.88;5064602;28;20051;-80
2023/07/08 03:19:59;;;;;;;2.90;2.10;;;;;;;17.91;61.78;101434.88;5069412;28;20052;-80
2023/07/08 03:22:26;;;;;;;3.15;2.13;;;;;;;17.88;61.10;101438.56;5068443;28;20045;-79
2023/07/08 03:24:53;;;;;;;3.65;2.25;;;;;;;17.95;61.52;101448.00;5081207;28;20037;-80
2023/07/08 03:27:21;;;;;;;4.38;2.17;;;;;;;17.96;61.19;101440.84;5059930;28;20133;-81
2023/07/08 03:29:50;;;;;;;3.83;2.40;;;;;;;17.91;61.64;101443.75;5081211;28;21009;-81
2023/07/08 03:32:17;;;;;;;4.88;2.53;;;;;;;17.84;61.58;101445.03;5066574;28;20338;-79
2023/07/08 03:34:44;;;;;;;4.97;2.22;;;;;;;17.78;62.17;101446.19;5063796;28;20123;-78
2023/07/08 03:37:12;;;;;;;3.03;2.20;;;;;;;17.72;62.45;101448.31;5067999;28;20096;-80
2023/07/08 03:39:40;;;;;;;4.93;2.22;;;;;;;17.70;62.37;101443.06;5065848;28;20080;-80
2023/07/08 03:42:07;;;;;;;5.90;2.25;;;;;;;17.69;62.50;101447.50;5073132;28;20798;-78
2023/07/08 03:44:34;;;;;;;2.88;1.95;;;;;;;17.65;62.89;101451.25;5066914;28;20045;-78
2023/07/08 03:47:01;;;;;;;2.97;2.10;;;;;;;17.62;62.75;101451.44;5068331;28;20041;-81
2023/07/08 03:49:28;;;;;;;3.25;2.10;;;;;;;17.59;62.96;101448.06;5065548;28;20599;-78
2023/07/08 03:51:56;;;;;;;4.03;2.42;;;;;;;17.61;63.06;101448.84;5065963;28;20536;-78
2023/07/08 03:54:25;;;;;;;3.30;2.33;;;;;;;17.67;63.02;101451.22;5058380;28;20078;-79
2023/07/08 03:56:55;;;;;;;4.22;2.30;;;;;;;17.73;63.01;101437.56;5065359;28;20044;-81
2023/07/08 03:59:24;;;;;;;3.88;2.30;;;;;;;17.79;62.88;101439.03;5066649;28;20155;-78
2023/07/08 04:01:54;;;;;;;5.28;2.22;;;;;;;17.81;62.90;101443.34;5058130;28;20044;-78
2023/07/08 04:04:23;;;;;;;5.28;2.35;;;;;;;17.84;62.41;101451.19;5067828;28;20080;-77
2023/07/08 04:06:51;;;;;;;5.93;2.30;;;;;;;17.83;63.19;101451.28;5069474;28;20048;-79
2023/07/08 04:09:18;;;;;;;4.15;2.20;;;;;;;17.81;63.25;101451.34;5082875;28;20045;-78
2023/07/08 04:11:45;;;;;;;3.92;2.33;;;;;;;17.84;62.94;101448.53;5068796;28;20049;-78
2023/07/08 04:14:13;;;;;;;4.85;2.45;;;;;;;17.82;63.46;101439.75;5066655;28;20029;-79
2023/07/08 04:16:46;;;;;;;4.07;2.30;;;;;;;17.81;63.04;101446.00;5068334;28;20497;-80
2023/07/08 04:19:14;;;;;;;5.47;2.30;;;;;;;17.76;63.37;101449.84;5068792;28;20072;-80
2023/07/08 04:21:44;;;;;;;3.20;2.08;;;;;;;17.72;63.64;101454.50;5068428;28;20164;-80
2023/07/08 04:24:14;;;;;;;3.75;2.25;;;;;;;17.75;63.64;101451.66;5066825;28;20111;-80
2023/07/08 04:26:46;;;;;;;5.32;2.35;;;;;;;17.84;63.58;101453.88;5067801;28;20045;-80
2023/07/08 04:29:18;;;;;;;4.97;2.40;;;;;;;17.84;63.32;101445.88;5066162;28;20555;-78
2023/07/08 04:31:45;;;;;;;4.95;2.40;;;;;;;17.92;63.46;101448.16;5066095;28;20050;-78
2023/07/08 04:34:15;;;;;;;3.67;2.38;;;;;;;18.09;63.09;101449.09;5065711;28;20195;-78
2023/07/08 04:36:43;;;;;;;4.63;2.55;;;;;;;18.20;62.84;101453.88;5065435;28;20048;-79
2023/07/08 04:39:12;;;;;;;3.70;2.60;;;;;;;18.31;62.51;101456.84;5066028;28;20044;-79
2023/07/08 04:41:40;;;;;;;4.00;2.25;;;;;;;18.41;62.20;101450.06;5066892;28;20045;-79
2023/07/08 04:44:10;;;;;;;3.63;2.20;;;;;;;18.69;61.37;101451.25;5065457;28;20044;-79
2023/07/08 04:46:53;;;;;;;3.50;2.00;;;;;;;18.88;60.67;101455.56;5065820;28;20041;-78
2023/07/08 04:49:23;;;;;;;4.38;2.10;;;;;;;18.84;61.11;101456.66;5060073;28;20624;-81
2023/07/08 04:51:51;;;;;;;3.53;2.33;;;;;;;18.95;60.96;101472.13;5058986;28;20045;-81
2023/07/08 04:54:19;;;;;;;3.40;1.95;;;;;;;19.29;60.03;101465.75;5061265;28;20041;-80
2023/07/08 04:56:49;;;;;;;3.33;2.22;;;;;;;19.44;59.74;101457.78;5058141;28;20056;-80
2023/07/08 04:59:20;;;;;;;3.38;2.05;;;;;;;19.54;59.03;101458.97;5058437;28;20124;-79
2023/07/08 05:01:48;;;;;;;2.83;1.98;;;;;;;19.36;59.59;101456.41;5059582;28;20056;-79
2023/07/08 05:04:19;;;;;;;3.15;2.25;;;;;;;19.27;59.99;101446.25;5057951;28;20042;-79
2023/07/08 05:06:47;;;;;;;2.80;2.05;;;;;;;19.28;60.07;101450.66;5057261;28;20048;-79
2023/07/08 05:09:15;;;;;;;3.80;2.15;;;;;;;19.30;60.38;101446.09;5057522;28;20046;-77
2023/07/08 05:11:44;;;;;;;3.92;2.13;;;;;;;19.38;60.23;101445.66;5057661;28;20053;-76
2023/07/08 05:14:13;;;;;;;3.05;1.98;;;;;;;19.40;60.11;101447.28;5055656;28;20584;-77
2023/07/08 05:16:41;;;;;;;4.55;2.40;;;;;;;19.44;60.11;101445.28;5056848;28;20572;-75
2023/07/08 05:19:08;;;;;;;4.18;2.30;;;;;;;19.69;59.67;101455.41;5064199;28;20048;-77
2023/07/08 05:21:35;;;;;;;4.85;2.20;;;;;;;19.99;59.63;101449.19;5063901;28;20060;-78
2023/07/08 05:24:04;;;;;;;4.80;2.13;;;;;;;21.78;55.77;101438.72;5073016;28;20049;-77
2023/07/08 05:26:33;;;;;;;3.10;2.17;;;;;;;23.98;49.90;101436.31;5066564;28;20496;-77
2023/07/08 05:29:00;;;;;;;3.60;2.20;;;;;;;25.15;46.70;101432.47;5065701;28;20060;-76
2023/07/08 05:31:28;;;;;;;2.60;1.90;;;;;;;25.93;45.03;101429.53;5076056;28;20051;-78
2023/07/08 05:33:58;;;;;;;2.65;2.03;;;;;;;27.01;42.44;101435.41;5072897;28;20041;-82
2023/07/08 05:36:25;;;;;;;3.40;1.80;;;;;;;28.02;40.32;101438.63;5066451;28;20131;-81
2023/07/08 05:38:53;;;;;;;4.15;2.05;;;;;;;28.97;38.55;101451.22;5070377;28;20954;-82
2023/07/08 05:41:20;;;;;;;2.97;1.77;;;;;;;29.74;36.45;101446.22;5071425;28;20041;-81
2023/07/08 05:43:47;;;;;;;2.67;1.83;;;;;;;30.33;35.30;101440.13;5071742;28;20033;-82
2023/07/08 05:46:14;;;;;;;4.18;1.70;;;;;;;30.90;34.57;101444.09;5066555;28;20519;-80
2023/07/08 05:48:41;;;;;;;2.50;2.03;;;;;;;31.32;33.03;101444.19;5082559;28;20048;-86
2023/07/08 05:51:08;;;;;;;2.83;2.03;;;;;;;31.59;32.43;101446.56;5075063;28;20056;-83
2023/07/08 05:53:36;;;;;;;3.78;2.05;;;;;;;31.93;32.00;101438.38;5071337;28;20045;-85
2023/07/08 05:56:04;;;;;;;3.47;1.83;;;;;;;32.27;31.55;101440.03;5066781;28;20044;-81
2023/07/08 05:58:31;;;;;;;4.97;2.00;;;;;;;32.04;31.78;101438.03;5068360;28;20242;-81
2023/07/08 06:00:58;;;;;;;3.38;1.67;;;;;;;32.31;30.97;101436.78;5062705;28;20048;-82
2023/07/08 06:03:26;;;;;;;4.28;1.92;;;;;;;31.52;31.99;101442.84;5065185;28;20613;-85
2023/07/08 06:05:54;;;;;;;5.03;1.83;;;;;;;29.23;34.54;101451.31;5057522;28;20047;-79
2023/07/08 06:08:22;;;;;;;4.43;2.00;;;;;;;27.64;37.37;101455.78;5059514;28;20040;-79
2023/07/08 06:10:50;;;;;;;6.40;2.30;;;;;;;28.77;36.25;101445.94;5057013;28;20505;-78
2023/07/08 06:13:18;;;;;;;5.68;2.00;;;;;;;30.37;33.64;101446.94;5057377;28;20083;-82
2023/07/08 06:15:45;;;;;;;3.83;2.05;;;;;;;31.37;32.37;101441.81;5057033;28;20436;-80
2023/07/08 06:18:12;;;;;;;3.33;1.83;;;;;;;32.15;31.78;101442.28;5061942;28;20045;-76
2023/07/08 06:20:39;;;;;;;4.20;2.13;;;;;;;32.25;30.78;101444.81;5066638;28;20104;-76
2023/07/08 06:23:06;;;;;;;2.85;1.88;;;;;;;30.87;32.61;101436.28;5063332;28;20180;-77
2023/07/08 06:25:34;;;;;;;5.63;2.17;;;;;;;28.84;35.55;101445.34;5062291;28;20056;-78
2023/07/08 06:28:01;;;;;;;4.90;2.40;;;;;;;27.18;38.45;101458.19;5068016;28;20156;-77
2023/07/08 06:30:28;;;;;;;4.50;2.08;;;;;;;26.07;40.69;101458.03;5058486;28;20045;-76
2023/07/08 06:32:55;;;;;;;9.20;2.40;;;;;;;25.30;42.65;101449.19;5055322;28;20041;-77
2023/07/08 06:35:25;;;;;;;3.30;2.17;;;;;;;24.77;44.20;101446.28;5065613;28;20134;-77
2023/07/08 06:37:52;;;;;;;3.83;2.08;;;;;;;24.46;45.08;101462.19;5062910;28;20041;-76
2023/07/08 06:40:19;;;;;;;3.15;2.10;;;;;;;24.16;46.15;101466.31;5063626;28;20041;-77
2023/07/08 06:42:47;;;;;;;2.92;2.10;;;;;;;23.96;46.71;101457.09;5059662;28;20061;-76
2023/07/08 06:45:29;;;;;;;3.17;2.17;;;;;;;23.87;47.62;101461.34;5047188;28;20045;-76
2023/07/08 06:47:56;;;;;;;3.30;2.08;;;;;;;23.80;47.58;101464.63;5056807;28;20056;-76
2023/07/08 06:50:23;;;;;;;5.35;2.30;;;;;;;23.84;47.87;101463.41;5056340;28;20053;-76
2023/07/08 06:52:50;;;;;;;3.97;2.33;;;;;;;23.89;47.69;101461.22;5067172;28;20092;-76
2023/07/08 06:55:17;;;;;;;5.15;2.25;;;;;;;23.95;47.95;101454.56;5069048;28;20056;-77
2023/07/08 06:57:44;;;;;;;5.88;2.47;;;;;;;23.85;47.80;101449.84;5067569;28;20049;-76
2023/07/08 07:00:12;;;;;;;3.85;2.40;;;;;;;23.73;47.90;101454.31;5078708;28;20537;-76
2023/07/08 07:02:39;;;;;;;3.47;2.50;;;;;;;23.74;47.68;101457.88;5064401;28;20520;-78
2023/07/08 07:05:08;;;;;;;5.28;2.33;;;;;;;23.70;47.88;101451.00;5056899;28;20414;-78
2023/07/08 07:07:35;;;;;;;4.85;2.42;;;;;;;23.74;48.27;101452.50;5061008;28;20044;-77
2023/07/08 07:10:03;;;;;;;4.47;2.40;;;;;;;23.69;48.10;101450.16;5061588;28;20057;-78
2023/07/08 07:12:30;;;;;;;7.93;2.60;;;;;;;23.61;48.12;101439.09;5065149;28;20706;-76
2023/07/08 07:14:57;;;;;;;6.32;2.90;;;;;;;23.75;48.34;101442.59;5059668;28;20102;-74
2023/07/08 07:17:26;;;;;;;5.05;2.30;;;;;;;23.85;48.49;101441.78;5052462;28;20053;-75
2023/07/08 07:19:54;;;;;;;5.32;2.50;;;;;;;23.98;48.16;101447.09;5059175;28;20131;-74
2023/07/08 07:22:22;;;;;;;3.92;2.55;;;;;;;24.11;47.92;101449.66;5054690;28;20132;-76
2023/07/08 07:24:49;;;;;;;7.10;2.38;;;;;;;24.21;47.56;101446.25;5056296;28;20038;-75
2023/07/08 07:27:16;;;;;;;5.68;2.40;;;;;;;24.32;47.62;101441.72;5058627;28;20045;-74
2023/07/08 07:29:49;;;;;;;3.65;2.30;;;;;;;24.48;47.20;101444.03;5064132;28;20052;-74
2023/07/08 07:32:22;;;;;;;6.30;2.88;;;;;;;24.59;47.25;101437.81;5064377;28;20484;-74
2023/07/08 07:34:50;;;;;;;4.30;2.60;;;;;;;24.74;46.81;101432.16;5053959;28;20128;-74
2023/07/08 07:37:21;;;;;;;6.07;2.45;;;;;;;24.86;46.68;101428.47;5060895;28;20046;-75
2023/07/08 07:39:49;;;;;;;8.55;2.40;;;;;;;25.01;46.03;101429.06;5057671;28;20104;-74
2023/07/08 07:42:19;;;;;;;5.20;2.60;;;;;;;25.12;46.40;101436.28;5063544;28;20076;-74
2023/07/08 07:44:47;;;;;;;6.15;2.80;;;;;;;25.27;46.28;101437.69;5059162;28;20484;-73
2023/07/08 07:47:14;;;;;;;5.95;2.80;;;;;;;25.45;45.61;101434.44;5058824;28;20136;-73
2023/07/08 07:49:41;;;;;;;4.25;2.53;;;;;;;25.57;45.42;101437.97;5066359;28;20049;-74
2023/07/08 07:52:10;;;;;;;5.45;3.03;;;;;;;25.74;44.66;101441.94;5062863;28;20049;-73
2023/07/08 07:54:39;;;;;;;6.82;2.90;;;;;;;25.83;44.30;101435.72;5054676;28;20492;-76
2023/07/08 07:57:08;;;;;;;7.50;3.15;;;;;;;25.93;44.79;101443.88;5053307;28;20048;-75
2023/07/08 07:59:35;;;;;;;6.78;2.90;;;;;;;26.03;43.22;101433.16;5065894;28;20449;-74
2023/07/08 08:02:03;;;;;;;3.85;2.67;;;;;;;26.13;43.64;101438.63;5057528;28;20542;-72
2023/07/08 08:04:30;;;;;;;6.10;3.10;;;;;;;26.26;42.89;101438.38;5053649;28;20181;-72
2023/07/08 08:06:58;;;;;;;7.90;2.95;;;;;;;26.38;43.17;101447.28;5054210;28;20041;-75
2023/07/08 08:09:25;;;;;;;6.05;3.00;;;;;;;26.53;42.59;101453.16;5054655;28;20603;-76
2023/07/08 08:11:54;;;;;;;3.97;3.08;;;;;;;26.61;42.04;101443.38;5055123;28;20077;-77
2023/07/08 08:14:21;;;;;;;5.13;3.17;;;;;;;26.71;42.12;101445.28;5060590;28;20327;-77
2023/07/08 08:16:49;;;;;;;4.97;3.03;;;;;;;26.83;42.36;101452.28;5057672;28;20077;-74
2023/07/08 08:19:16;;;;;;;6.00;3.22;;;;;;;26.99;42.37;101443.63;5054394;28;20048;-74
2023/07/08 08:21:43;;;;;;;6.55;3.20;;;;;;;27.17;41.63;101446.50;5063464;28;20045;-75
2023/07/08 08:24:10;;;;;;;5.78;3.30;;;;;;;27.35;41.63;101443.09;5061605;28;20213;-79
2023/07/08 08:26:37;;;;;;;10.48;3.42;;;;;;;27.50;40.77;101448.97;5055713;28;20052;-79
2023/07/08 08:29:04;;;;;;;6.90;3.50;;;;;;;27.61;39.82;101447.97;5063133;28;20126;-75
2023/07/08 08:31:32;;;;;;;7.20;3.50;;;;;;;27.67;40.32;101455.53;5047713;28;20052;-75
2023/07/08 08:33:59;;;;;;;6.65;3.33;;;;;;;27.73;40.05;101453.09;5047926;28;20041;-77
2023/07/08 08:36:26;;;;;;;4.05;2.90;;;;;;;27.86;40.52;101466.31;5056836;28;20506;-73
2023/07/08 08:38:53;;;;;;;6.53;3.05;;;;;;;28.00;39.92;101454.16;5061206;28;20045;-76
2023/07/08 08:41:37;;;;;;;6.38;3.47;;;;;;;28.11;38.90;101453.19;5063001;28;20045;-74
2023/07/08 08:44:13;;;;;;;8.15;3.05;;;;;;;28.17;38.50;101444.47;5057118;28;20192;-74
2023/07/08 08:46:54;;;;;;;6.22;3.20;;;;;;;28.22;38.63;101452.16;5050766;28;20590;-74
2023/07/08 08:49:32;;;;;;;5.35;3.35;;;;;;;28.33;39.11;101451.13;5054112;28;20045;-74
2023/07/08 08:51:59;;;;;;;5.88;3.30;;;;;;;28.48;38.23;101457.75;5056364;28;20049;-74
2023/07/08 08:54:28;;;;;;;7.35;3.55;;;;;;;28.59;39.01;101459.41;5061617;28;20123;-75
2023/07/08 08:57:16;;;;;;;6.35;3.20;;;;;;;28.72;38.15;101458.22;5066986;28;20044;-75
2023/07/08 08:59:53;;;;;;;6.10;3.70;;;;;;;28.81;37.19;101447.34;5059904;28;20037;-74
2023/07/08 09:02:36;;;;;;;5.60;3.63;;;;;;;28.89;36.90;101454.72;5047917;28;20509;-73
2023/07/08 09:05:10;;;;;;;6.67;3.30;;;;;;;28.95;36.44;101442.38;5047604;28;20466;-74
2023/07/08 09:08:05;;;;;;;9.85;3.65;;;;;;;29.01;36.42;101444.50;5054434;28;20104;-74
2023/07/08 09:10:46;;;;;;;5.00;3.70;;;;;;;29.07;36.48;101449.28;5059456;28;20055;-74
2023/07/08 09:13:31;;;;;;;6.47;3.47;;;;;;;29.23;36.64;101442.34;5073866;28;20083;-75
2023/07/08 09:16:13;;;;;;;7.68;3.90;;;;;;;29.49;36.53;101447.88;5063245;28;20049;-74
2023/07/08 09:18:56;;;;;;;7.82;3.40;;;;;;;29.74;36.19;101448.91;5047908;28;20057;-74
2023/07/08 09:21:33;;;;;;;8.27;3.95;;;;;;;29.96;36.16;101446.72;5064423;28;20428;-73
2023/07/08 09:24:09;;;;;;;7.18;3.60;;;;;;;30.20;36.00;101451.47;5080175;28;20119;-73
2023/07/08 09:26:36;;;;;;;10.02;4.00;;;;;;;30.37;35.53;101446.94;5062410;28;20045;-74
2023/07/08 09:29:09;;;;;;;6.82;3.50;;;;;;;30.42;34.23;101448.31;5069191;28;20078;-75
2023/07/08 09:31:39;;;;;;;;;;;;;;;30.41;34.16;101452.91;5079860;28;20048;-74
2023/07/08 09:34:22;;;;;;;9.63;3.80;;;;;;;30.47;34.68;101454.13;5070242;28;19931;-74
2023/07/08 09:36:52;;;;;;;5.68;3.13;;;;;;;30.58;34.60;101444.84;5055062;28;20052;-74
2023/07/08 09:39:20;;;;;;;7.15;3.55;;;;;;;30.71;35.09;101441.66;5073879;28;20052;-74
2023/07/08 09:41:49;;;;;;;6.47;3.95;;;;;;;30.83;34.41;101446.63;5082856;28;20124;-75
2023/07/08 09:44:29;;;;;;;12.18;3.80;;;;;;;30.92;34.24;101449.38;5072608;28;20076;-76
2023/07/08 09:46:58;;;;;;;7.50;3.85;;;;;;;31.10;33.86;101446.50;5072916;28;20036;-77
2023/07/08 09:49:35;;;;;;;8.05;4.22;;;;;;;31.21;34.26;101445.38;5075737;28;20280;-74
2023/07/08 09:52:04;;;;;;;9.93;3.53;;;;;;;31.27;34.05;101447.41;5063711;28;20131;-74
2023/07/08 09:54:32;;;;;;;7.90;4.20;;;;;;;31.21;33.76;101453.56;5064725;28;20139;-75
2023/07/08 09:57:12;;;;;;;6.30;4.00;;;;;;;31.21;34.52;101448.94;5071061;28;20186;-75
2023/07/08 09:59:46;;;;;;;6.13;3.85;;;;;;;31.43;34.05;101454.75;5065946;28;20048;-74
2023/07/08 10:02:42;;;;;;;8.18;3.85;;;;;;;31.45;33.89;101450.00;5066590;28;20120;-75
2023/07/08 10:05:31;;;;;;;8.55;4.03;;;;;;;31.63;33.61;101454.41;5067238;28;20059;-75
2023/07/08 10:08:17;;;;;;;6.80;3.75;;;;;;;31.81;33.73;101448.81;5050972;28;20086;-75
2023/07/08 10:10:48;;;;;;;6.15;3.53;;;;;;;31.94;33.49;101456.44;5059845;28;20087;-73
2023/07/08 10:13:22;;;;;;;10.77;4.07;;;;;;;31.96;33.54;101444.34;5057443;28;20069;-72
2023/07/08 10:16:21;;;;;;;7.88;3.63;;;;;;;32.10;33.72;101441.94;5068074;28;20045;-72
2023/07/08 10:18:48;;;;;;;7.10;4.05;;;;;;;32.17;33.43;101443.78;5056810;28;20095;-76
2023/07/08 10:21:31;;;;;;;9.88;3.83;;;;;;;32.24;32.92;101451.28;5066035;28;20051;-71
2023/07/08 10:24:40;;;;;;;5.72;3.75;;;;;;;32.41;31.90;101436.56;5062775;28;20041;-74
2023/07/08 10:27:32;;;;;;;6.40;4.35;;;;;;;32.42;31.55;101437.44;5058214;28;20541;-73
2023/07/08 10:30:05;;;;;;;8.30;4.05;;;;;;;32.43;30.48;101433.66;5061723;28;20960;-71
2023/07/08 10:33:08;;;;;;;5.30;3.58;;;;;;;32.36;30.51;101425.34;5062262;28;20052;-73
2023/07/08 10:35:56;;;;;;;9.82;4.25;;;;;;;32.44;30.63;101425.31;5068574;28;20037;-73
2023/07/08 10:38:47;;;;;;;8.15;3.90;;;;;;;32.55;31.15;101426.81;5066544;28;20053;-74
2023/07/08 10:41:35;;;;;;;7.03;3.70;;;;;;;32.75;31.17;101434.53;5064364;28;20049;-75
2023/07/08 10:44:56;;;;;;;6.10;4.00;;;;;;;32.94;30.02;101425.91;5070002;28;20457;-74
2023/07/08 10:47:50;;;;;;;6.13;3.50;;;;;;;33.05;29.21;101434.72;5076945;28;20044;-75
2023/07/08 10:50:52;;;;;;;5.40;3.80;;;;;;;33.16;28.93;101428.84;5068770;28;20140;-74
2023/07/08 10:53:34;;;;;;;6.75;3.88;;;;;;;33.20;29.01;101419.25;5078598;28;20040;-75
2023/07/08 10:56:38;;;;;;;6.95;3.90;;;;;;;33.28;29.34;101432.81;5063883;28;20592;-76
2023/07/08 10:59:49;;;;;;;5.88;3.92;;;;;;;33.43;29.68;101427.44;5058958;28;20056;-73
2023/07/08 11:02:57;;;;;;;5.55;3.78;;;;;;;33.50;29.04;101432.19;5059276;28;20107;-73
2023/07/08 11:05:45;;;;;;;6.50;3.80;;;;;;;33.48;29.54;101429.63;5061916;28;20120;-74
2023/07/08 11:08:23;;;;;;;5.95;3.70;;;;;;;33.57;29.30;101431.28;5058916;28;20056;-75
2023/07/08 11:11:11;;;;;;;6.82;4.05;;;;;;;33.65;29.27;101433.06;5068015;28;20055;-78
2023/07/08 11:14:04;;;;;;;11.48;4.45;;;;;;;33.78;28.67;101426.09;5060958;28;20565;-75
2023/07/08 11:16:42;;;;;;;5.60;3.80;;;;;;;33.92;28.71;101419.84;5069261;28;20045;-76
2023/07/08 11:19:21;;;;;;;5.95;3.53;;;;;;;34.00;27.24;101424.34;5065697;28;20140;-74
2023/07/08 11:21:55;;;;;;;7.60;3.83;;;;;;;34.04;27.53;101421.06;5069213;28;20120;-73
2023/07/08 11:24:48;;;;;;;5.00;3.85;;;;;;;34.17;27.94;101428.63;5059860;28;20123;-78
2023/07/08 11:27:32;;;;;;;7.65;3.60;;;;;;;34.33;27.72;101427.56;5056690;28;20381;-74
2023/07/08 11:30:11;;;;;;;6.18;3.60;;;;;;;34.47;25.58;101422.28;5062514;28;20084;-78
2023/07/08 11:32:42;;;;;;;6.72;3.72;;;;;;;34.34;25.46;101420.19;5066288;28;20053;-77
2023/07/08 11:35:36;;;;;;;7.47;3.95;;;;;;;34.23;26.21;101418.81;5060887;28;20434;-73
2023/07/08 11:38:05;;;;;;;7.65;4.15;;;;;;;34.24;26.33;101422.38;5065669;28;20043;-75
2023/07/08 11:40:51;;;;;;;8.23;4.03;;;;;;;34.30;26.68;101417.00;5073398;28;20041;-75
2023/07/08 11:43:21;;;;;;;6.65;4.15;;;;;;;34.39;27.13;101417.78;5068627;28;20072;-74
2023/07/08 11:45:51;;;;;;;5.82;4.13;;;;;;;34.56;26.90;101414.81;5089426;28;20110;-76
2023/07/08 11:48:30;;;;;;;8.15;3.90;;;;;;;34.74;26.77;101412.50;5083277;28;20098;-77